Time;durP1;ratioP1;P1;durP2;ratioP2;P2;SDS_P1;SDS_P2;PMS_P1;PMS_P2;Temp;Humidity;BMP_temperature;BMP_pressure;BME280_temperature;BME280_humidity;BME280_pressure;Samples;Min_cycle;Max_cycle;Signal;HPM_P1;HPM_P2
2024/02/11 00:00:05;;;;;;;17.95;7.78;;;;;;;11.39;74.80;97469.88;10229292;28;20055;-68
2024/02/11 00:05:09;;;;;;;12.18;5.40;;;;;;;11.19;75.45;97476.63;10224813;28;20086;-66
2024/02/11 00:10:11;;;;;;;7.45;4.50;;;;;;;11.35;75.08;97472.25;10234584;28;20479;-68
2024/02/11 00:15:13;;;;;;;9.68;4.47;;;;;;;11.42;74.88;97491.69;10236844;28;20054;-67
2024/02/11 00:20:15;;;;;;;9.13;3.85;;;;;;;11.44;74.75;97491.44;10235510;28;20070;-67
2024/02/11 00:25:18;;;;;;;13.98;5.35;;;;;;;11.45;74.88;97506.50;10238662;28;20150;-69
2024/02/11 00:30:22;;;;;;;10.80;5.57;;;;;;;11.41;75.20;97500.81;10233425;28;20100;-69
2024/02/11 00:35:24;;;;;;;9.15;4.82;;;;;;;11.44;74.81;97499.53;10235200;28;20472;-69
2024/02/11 00:40:25;;;;;;;9.13;5.68;;;;;;;11.45;74.45;97498.44;10239314;28;20052;-67
2024/02/11 00:45:29;;;;;;;10.77;6.40;;;;;;;11.43;74.73;97498.72;10222495;28;20556;-67
2024/02/11 00:50:31;;;;;;;8.32;5.53;;;;;;;11.44;74.78;97515.66;10240422;28;20110;-68
2024/02/11 00:55:36;;;;;;;12.15;5.78;;;;;;;11.43;74.64;97522.94;10229347;28;20058;-67
2024/02/11 01:00:38;;;;;;;10.20;5.13;;;;;;;11.44;74.77;97524.53;10241353;28;20517;-67
2024/02/11 01:05:43;;;;;;;11.43;5.70;;;;;;;11.39;75.05;97529.84;10239368;28;20399;-67
2024/02/11 01:10:45;;;;;;;9.93;5.15;;;;;;;11.40;75.20;97536.06;10233001;28;20043;-61
2024/02/11 01:15:47;;;;;;;11.77;6.05;;;;;;;11.46;74.71;97538.53;10232302;28;20056;-63
2024/02/11 01:20:50;;;;;;;13.68;7.40;;;;;;;11.47;74.57;97536.66;10230110;28;20141;-62
2024/02/11 01:25:51;;;;;;;13.27;6.30;;;;;;;11.50;74.38;97538.88;10232009;28;20658;-64
2024/02/11 01:30:53;;;;;;;14.38;6.28;;;;;;;11.44;75.21;97540.69;10229766;28;20051;-66
2024/02/11 01:35:54;;;;;;;12.18;7.00;;;;;;;11.44;75.16;97537.97;10229587;28;20366;-66
2024/02/11 01:40:56;;;;;;;16.40;6.53;;;;;;;11.41;75.70;97538.47;10225797;28;20078;-66
2024/02/11 01:45:58;;;;;;;10.70;6.43;;;;;;;11.40;75.77;97538.75;10228867;28;20059;-67
2024/02/11 01:50:59;;;;;;;13.05;7.40;;;;;;;11.41;75.92;97540.34;10232948;28;20138;-67
2024/02/11 01:56:01;;;;;;;14.25;7.18;;;;;;;11.39;76.03;97527.16;10227813;28;20047;-66
2024/02/11 02:01:03;;;;;;;11.88;7.20;;;;;;;11.42;75.79;97531.25;10216331;28;20062;-66
2024/02/11 02:06:05;;;;;;;13.25;7.15;;;;;;;11.42;75.91;97540.13;10229202;28;20458;-66
2024/02/11 02:11:09;;;;;;;11.98;6.75;;;;;;;11.44;75.71;97543.38;10229337;28;20410;-66
2024/02/11 02:16:11;;;;;;;17.67;8.98;;;;;;;11.38;76.04;97548.94;10221585;28;20720;-66
2024/02/11 02:21:12;;;;;;;15.57;7.90;;;;;;;11.40;76.58;97539.56;10230680;28;20062;-64
2024/02/11 02:26:14;;;;;;;9.60;5.85;;;;;;;11.36;76.50;97549.19;10226973;28;20059;-63
2024/02/11 02:31:16;;;;;;;15.40;6.80;;;;;;;11.35;76.45;97539.47;10226529;28;20052;-67
2024/02/11 02:36:17;;;;;;;10.80;6.13;;;;;;;11.33;76.74;97541.59;10228186;28;20074;-65
2024/02/11 02:41:19;;;;;;;12.50;6.93;;;;;;;11.25;77.25;97539.34;10225291;28;20063;-66
2024/02/11 02:46:21;;;;;;;15.20;8.02;;;;;;;11.19;77.06;97540.34;10224994;28;20056;-62
2024/02/11 02:51:23;;;;;;;13.90;7.32;;;;;;;11.22;77.02;97548.75;10227960;28;20110;-66
2024/02/11 02:56:26;;;;;;;12.68;7.45;;;;;;;11.26;77.01;97549.88;10225011;28;20051;-64
2024/02/11 03:01:29;;;;;;;19.38;7.80;;;;;;;11.21;77.34;97557.88;10225612;28;20054;-63
2024/02/11 03:06:33;;;;;;;15.57;7.70;;;;;;;11.17;77.38;97551.34;10224788;28;20122;-64
2024/02/11 03:11:34;;;;;;;15.40;9.65;;;;;;;11.17;77.35;97554.03;10232340;28;20054;-63
2024/02/11 03:16:36;;;;;;;18.67;9.35;;;;;;;11.19;77.30;97553.81;10227021;28;20761;-66
2024/02/11 03:21:38;;;;;;;18.55;9.50;;;;;;;11.19;77.09;97554.59;10228861;28;20044;-65
2024/02/11 03:26:40;;;;;;;18.33;10.00;;;;;;;11.16;77.67;97559.66;10224518;28;20086;-64
2024/02/11 03:31:42;;;;;;;18.25;10.23;;;;;;;11.20;77.55;97558.94;10231196;28;20043;-67
2024/02/11 03:36:43;;;;;;;23.63;10.90;;;;;;;11.12;77.92;97575.50;10266390;28;20069;-63
2024/02/11 03:41:45;;;;;;;22.15;10.90;;;;;;;11.01;78.15;97574.53;10260155;28;20061;-63
2024/02/11 03:46:47;;;;;;;21.10;11.18;;;;;;;10.99;78.30;97587.41;10271285;28;20249;-63
2024/02/11 03:51:49;;;;;;;24.13;11.23;;;;;;;10.95;78.56;97572.84;10295655;23;20066;-89
2024/02/11 03:56:51;;;;;;;26.08;11.95;;;;;;;10.96;78.83;97573.66;10300502;28;20053;-88
2024/02/11 04:01:53;;;;;;;28.67;13.32;;;;;;;10.97;78.79;97588.72;10300640;28;20085;-88
2024/02/11 04:07:00;;;;;;;21.90;11.77;;;;;;;10.94;79.03;97597.28;10297060;28;20054;-89
2024/02/11 04:12:30;;;;;;;22.58;11.55;;;;;;;10.95;79.12;97604.28;10302624;28;20051;-88
2024/02/11 04:17:36;;;;;;;22.38;12.85;;;;;;;10.96;79.30;97614.78;10316707;28;20061;-91
2024/02/11 04:22:37;;;;;;;27.05;13.73;;;;;;;11.00;79.00;97613.25;10339733;23;20047;-84
2024/02/11 04:27:40;;;;;;;21.40;11.93;;;;;;;10.99;78.82;97613.47;10265245;28;20162;-88
2024/02/11 04:32:42;;;;;;;13.13;7.50;;;;;;;10.90;79.38;97624.66;10256221;28;20051;-88
2024/02/11 04:37:49;;;;;;;9.63;5.65;;;;;;;10.90;79.10;97624.66;10271993;28;20046;-87
2024/02/11 04:42:54;;;;;;;9.18;3.85;;;;;;;10.81;79.35;97641.44;10261438;28;20054;-87
2024/02/11 04:48:02;;;;;;;3.28;1.85;;;;;;;10.76;78.66;97652.09;10258118;28;20061;-87
2024/02/11 04:53:04;;;;;;;2.83;1.63;;;;;;;10.71;78.76;97650.94;10255280;28;20054;-86
2024/02/11 04:58:11;;;;;;;1.63;0.98;;;;;;;10.68;78.61;97656.81;10272468;28;20137;-86
2024/02/11 05:03:17;;;;;;;1.27;0.40;;;;;;;10.69;77.93;97665.69;10279724;28;20065;-84
2024/02/11 05:08:20;;;;;;;0.47;0.30;;;;;;;10.63;78.20;97664.78;10255174;28;20109;-84
2024/02/11 05:13:29;;;;;;;0.60;0.20;;;;;;;10.41;78.02;97670.03;10274215;28;20465;-84
2024/02/11 05:18:36;;;;;;;6.00;0.50;;;;;;;10.39;77.54;97677.53;10284511;28;20135;-86
2024/02/11 05:23:38;;;;;;;0.40;0.20;;;;;;;10.35;77.27;97684.44;10279937;28;20049;-85
2024/02/11 05:28:40;;;;;;;0.77;0.30;;;;;;;10.23;77.37;97691.66;10316600;28;20070;-87
2024/02/11 05:33:42;;;;;;;0.90;0.20;;;;;;;10.18;77.01;97699.66;10318195;28;20093;-89
2024/02/11 05:38:43;;;;;;;2.28;0.40;;;;;;;10.16;76.89;97699.06;10300595;28;20046;-89
2024/02/11 05:43:45;;;;;;;0.73;0.40;;;;;;;10.19;76.74;97695.91;10312800;28;20109;-89
2024/02/11 05:48:47;;;;;;;1.65;0.90;;;;;;;10.24;76.08;97707.56;10317524;28;20105;-87
2024/02/11 05:53:49;;;;;;;0.60;0.30;;;;;;;10.28;76.26;97714.06;10311752;28;20093;-87
2024/02/11 05:58:52;;;;;;;1.33;0.40;;;;;;;10.28;75.78;97718.63;10318616;28;20054;-88
2024/02/11 06:03:53;;;;;;;3.65;0.68;;;;;;;10.25;75.63;97724.50;10308305;28;20042;-88
2024/02/11 06:08:55;;;;;;;1.02;0.40;;;;;;;10.29;75.35;97722.97;10289593;28;20081;-88
2024/02/11 06:13:57;;;;;;;0.70;0.30;;;;;;;10.29;75.63;97726.44;10299650;28;20038;-89
2024/02/11 06:18:59;;;;;;;3.70;0.40;;;;;;;10.29;75.14;97736.38;10296379;28;20050;-89
2024/02/11 06:24:04;;;;;;;1.63;0.40;;;;;;;10.29;75.47;97752.50;10318140;28;20054;-87
2024/02/11 06:29:06;;;;;;;0.60;0.43;;;;;;;10.30;74.95;97759.50;10295920;28;20534;-88
2024/02/11 06:34:08;;;;;;;4.57;0.60;;;;;;;10.29;75.19;97760.53;10302174;28;20065;-88
2024/02/11 06:39:10;;;;;;;3.95;0.50;;;;;;;10.30;75.07;97792.53;10321377;28;20050;-85
2024/02/11 06:44:15;;;;;;;0.85;0.50;;;;;;;10.37;74.67;97795.09;10312586;28;20057;-90
2024/02/11 06:49:17;;;;;;;1.70;0.40;;;;;;;10.39;74.50;97802.94;10339576;28;20050;-89
2024/02/11 06:54:22;;;;;;;1.77;0.30;;;;;;;10.40;74.62;97812.59;10368578;28;20022;-90
2024/02/11 06:59:29;;;;;;;1.05;0.40;;;;;;;10.46;74.20;97828.56;10342616;28;20058;-89
2024/02/11 07:04:34;;;;;;;1.02;0.40;;;;;;;10.44;73.85;97830.69;10363760;28;20062;-89
2024/02/11 07:09:41;;;;;;;3.15;0.40;;;;;;;10.45;74.18;97843.06;10358255;28;20034;-90
2024/02/11 07:14:45;;;;;;;1.05;0.50;;;;;;;10.38;73.87;97852.31;10395756;28;20069;-89
2024/02/11 07:19:50;;;;;;;1.33;0.50;;;;;;;10.40;74.00;97855.56;10355423;28;20041;-89
2024/02/11 07:24:52;;;;;;;1.45;0.40;;;;;;;10.41;73.85;97855.34;10330836;28;20297;-91
2024/02/11 07:29:54;;;;;;;2.00;0.60;;;;;;;10.36;73.71;97871.34;10286617;28;20057;-91
2024/02/11 07:34:58;;;;;;;4.28;2.00;;;;;;;10.30;73.82;97883.84;10300872;28;20054;-91
2024/02/11 07:40:04;;;;;;;2.78;0.80;;;;;;;10.29;73.88;97884.06;10310945;28;20054;-88
2024/02/11 07:45:06;;;;;;;3.63;1.08;;;;;;;10.30;73.74;97896.44;10295421;28;20054;-91
2024/02/11 07:50:15;;;;;;;4.88;1.00;;;;;;;10.27;73.56;97903.09;10314678;28;20046;-90
2024/02/11 07:55:18;;;;;;;2.65;0.90;;;;;;;10.39;73.31;97904.97;10279782;28;20051;-90
2024/02/11 08:00:26;;;;;;;3.95;1.10;;;;;;;10.48;73.16;97901.66;10296403;28;20491;-89
2024/02/11 08:05:44;;;;;;;2.22;1.10;;;;;;;10.45;73.33;97910.22;10277359;28;20080;-89
2024/02/11 08:11:08;;;;;;;2.78;1.10;;;;;;;10.52;73.33;97918.97;10336866;28;20498;-89
2024/02/11 08:16:19;;;;;;;7.45;1.63;;;;;;;10.72;73.01;97917.75;10331655;28;20046;-89
2024/02/11 08:22:01;;;;;;;3.63;1.50;;;;;;;10.72;72.95;97925.81;10319358;28;20049;-90
2024/02/11 08:27:44;;;;;;;3.30;2.45;;;;;;;10.77;72.75;97925.94;10339087;28;20037;-89
2024/02/11 08:32:49;;;;;;;4.40;1.65;;;;;;;10.77;72.88;97936.69;10363176;28;20066;-90
2024/02/11 08:38:10;;;;;;;5.10;1.85;;;;;;;10.80;72.90;97938.06;10332731;28;20077;-89
2024/02/11 08:43:15;;;;;;;4.90;2.58;;;;;;;10.94;72.45;97950.19;10345273;28;20060;-89
2024/02/11 08:48:39;;;;;;;4.43;1.88;;;;;;;10.97;72.32;97940.84;10365916;28;20065;-89
2024/02/11 08:53:58;;;;;;;8.23;2.33;;;;;;;11.04;72.63;97957.66;10360424;28;20049;-89
2024/02/11 08:59:06;;;;;;;7.40;2.40;;;;;;;11.22;72.41;97967.41;10335067;28;20095;-90
2024/02/11 09:04:09;;;;;;;7.63;3.15;;;;;;;11.37;72.09;97966.88;10322594;28;20077;-90
2024/02/11 09:09:12;;;;;;;8.95;3.38;;;;;;;11.47;72.27;97953.63;10299465;28;20058;-90
2024/02/11 09:14:17;;;;;;;8.90;3.30;;;;;;;11.50;71.90;97958.53;10323429;28;20194;-90
2024/02/11 09:19:21;;;;;;;10.38;3.47;;;;;;;11.47;71.60;97975.97;10321521;28;20098;-90
2024/02/11 09:25:06;;;;;;;11.80;3.40;;;;;;;11.66;71.32;97971.19;10323311;28;20054;-90
2024/02/11 09:30:36;;;;;;;12.85;3.83;;;;;;;11.63;71.01;97968.16;10308390;28;20074;-90
2024/02/11 09:35:38;;;;;;;9.23;4.10;;;;;;;11.58;71.18;97974.28;10310373;28;20057;-88
2024/02/11 09:40:40;;;;;;;8.50;3.70;;;;;;;11.75;70.82;97984.25;10357120;28;20147;-91
2024/02/11 09:45:43;;;;;;;16.02;5.22;;;;;;;11.88;70.84;97987.44;10373443;23;20047;-71
2024/02/11 09:50:45;;;;;;;8.90;4.13;;;;;;;12.16;70.51;97993.06;10286710;28;20199;-72
2024/02/11 09:55:47;;;;;;;7.28;3.72;;;;;;;12.45;69.84;98004.56;10273029;28;20057;-70
2024/02/11 10:00:50;;;;;;;8.98;4.28;;;;;;;12.59;69.36;97997.75;10293163;28;20126;-71
2024/02/11 10:05:55;;;;;;;10.73;4.70;;;;;;;12.53;69.41;98009.53;10275663;28;20051;-70
2024/02/11 10:10:59;;;;;;;8.40;4.57;;;;;;;12.44;69.56;98025.31;10269041;28;20058;-70
2024/02/11 10:16:05;;;;;;;7.75;3.92;;;;;;;12.39;69.24;98019.03;10258436;28;20055;-71
2024/02/11 10:21:09;;;;;;;10.75;3.78;;;;;;;12.50;69.03;98031.59;10288967;28;20051;-71
2024/02/11 10:26:12;;;;;;;8.70;3.63;;;;;;;12.58;68.85;98031.19;10260184;28;20055;-69
2024/02/11 10:31:14;;;;;;;9.63;3.85;;;;;;;12.53;68.96;98035.69;10234853;28;20052;-71
2024/02/11 10:36:15;;;;;;;8.35;3.97;;;;;;;12.51;68.82;98044.00;10229095;28;20063;-64
2024/02/11 10:41:18;;;;;;;6.72;3.40;;;;;;;12.24;69.08;98046.53;10215985;28;20067;-65
2024/02/11 10:46:22;;;;;;;7.22;3.35;;;;;;;12.21;69.05;98042.44;10231365;28;20477;-66
2024/02/11 10:51:32;;;;;;;6.88;2.95;;;;;;;12.14;69.16;98049.84;10265715;28;20495;-64
2024/02/11 10:56:35;;;;;;;13.88;3.83;;;;;;;12.28;68.78;98044.97;10268636;28;20056;-65
2024/02/11 11:01:38;;;;;;;8.02;3.70;;;;;;;12.33;68.83;98055.03;10265288;28;20066;-63
2024/02/11 11:06:41;;;;;;;6.03;3.05;;;;;;;12.23;69.08;98048.41;10264223;28;20039;-66
2024/02/11 11:11:42;;;;;;;9.18;3.40;;;;;;;12.23;68.66;98045.72;10244574;28;20411;-65
2024/02/11 11:16:46;;;;;;;6.20;2.80;;;;;;;12.23;68.74;98039.50;10249839;28;20049;-66
2024/02/11 11:21:57;;;;;;;7.10;2.65;;;;;;;12.48;68.06;98045.31;10263079;28;20073;-66
2024/02/11 11:26:58;;;;;;;3.90;2.30;;;;;;;12.57;67.82;98055.69;10261195;28;20054;-65
2024/02/11 11:32:01;;;;;;;7.15;2.20;;;;;;;12.60;67.83;98042.53;10242993;28;20053;-66
2024/02/11 11:37:13;;;;;;;4.95;1.60;;;;;;;12.70;67.89;98044.56;10266542;28;20050;-66
2024/02/11 11:42:16;;;;;;;2.08;1.30;;;;;;;12.74;67.48;98039.47;10265321;28;20498;-65
2024/02/11 11:47:20;;;;;;;2.50;1.40;;;;;;;12.68;67.94;98041.31;10263520;28;20043;-70
2024/02/11 11:52:22;;;;;;;4.45;1.40;;;;;;;12.99;67.25;98042.53;10260628;28;20046;-71
2024/02/11 11:57:24;;;;;;;3.70;1.23;;;;;;;13.26;66.83;98045.34;10280603;28;20111;-72
2024/02/11 12:02:26;;;;;;;2.70;1.35;;;;;;;13.55;66.38;98042.47;10279113;28;20074;-70
2024/02/11 12:07:32;;;;;;;2.28;1.10;;;;;;;13.83;65.66;98036.03;10262567;28;20067;-72
2024/02/11 12:12:33;;;;;;;3.80;1.17;;;;;;;14.20;65.35;98024.50;10275564;28;20369;-72
2024/02/11 12:17:35;;;;;;;3.05;0.93;;;;;;;14.01;65.62;98039.44;10279921;28;20130;-70
2024/02/11 12:22:38;;;;;;;1.85;1.00;;;;;;;13.64;65.94;98042.84;10422041;23;20058;-89
2024/02/11 12:27:40;;;;;;;3.33;0.93;;;;;;;13.32;66.38;98050.84;10371438;28;20076;-88
2024/02/11 12:32:42;;;;;;;4.03;1.20;;;;;;;13.15;66.40;98048.97;10363497;28;20046;-88
2024/02/11 12:37:44;;;;;;;1.83;0.95;;;;;;;13.12;66.68;98054.88;10328495;28;20049;-85
2024/02/11 12:42:46;;;;;;;1.77;0.80;;;;;;;13.09;66.40;98056.19;10355786;28;20058;-84
2024/02/11 12:47:47;;;;;;;1.50;0.77;;;;;;;13.02;66.55;98052.03;10339977;28;20110;-85
2024/02/11 12:52:55;;;;;;;2.75;1.13;;;;;;;13.05;66.78;98052.34;10351041;28;20072;-88
2024/02/11 12:57:58;;;;;;;0.90;0.70;;;;;;;13.28;66.44;98055.88;10341504;28;20042;-87
2024/02/11 13:03:04;;;;;;;3.63;0.60;;;;;;;13.29;66.17;98058.38;10369713;28;20390;-88
2024/02/11 13:08:07;;;;;;;2.00;1.00;;;;;;;13.04;66.92;98050.72;10352623;28;20058;-88
2024/02/11 13:13:09;;;;;;;1.30;0.63;;;;;;;12.93;66.92;98048.13;10369765;28;20076;-87
2024/02/11 13:18:14;;;;;;;2.17;0.75;;;;;;;12.97;66.60;98060.84;10358265;28;20130;-88
2024/02/11 13:23:16;;;;;;;0.77;0.60;;;;;;;12.98;66.71;98053.59;10328507;28;20047;-87
2024/02/11 13:28:19;;;;;;;1.45;0.50;;;;;;;12.94;66.52;98053.28;10340882;28;20058;-87
2024/02/11 13:33:25;;;;;;;2.15;0.73;;;;;;;13.10;66.27;98060.50;10344283;28;20054;-88
2024/02/11 13:38:30;;;;;;;4.28;2.00;;;;;;;13.23;65.82;98055.81;10346087;28;20122;-87
2024/02/11 13:43:32;;;;;;;2.58;1.00;;;;;;;13.20;65.85;98059.81;10352067;28;20054;-89
2024/02/11 13:48:34;;;;;;;2.88;1.90;;;;;;;13.12;65.39;98054.88;10340712;28;20061;-88
2024/02/11 13:53:40;;;;;;;2.47;0.80;;;;;;;12.89;65.62;98063.97;10316044;28;20129;-88
2024/02/11 13:58:42;;;;;;;2.42;0.77;;;;;;;12.90;65.60;98061.03;10331930;28;20413;-89
2024/02/11 14:03:46;;;;;;;2.58;0.52;;;;;;;12.78;65.65;98064.91;10311626;28;20085;-90
2024/02/11 14:08:48;;;;;;;5.90;0.55;;;;;;;12.66;65.53;98067.69;10304624;28;20101;-89
2024/02/11 14:13:51;;;;;;;4.53;0.50;;;;;;;12.06;67.55;98075.28;10328826;28;20051;-90
2024/02/11 14:18:54;;;;;;;0.60;0.40;;;;;;;12.13;68.05;98077.06;10329699;28;20146;-89
2024/02/11 14:23:56;;;;;;;2.72;0.40;;;;;;;12.42;67.52;98075.94;10327754;28;20058;-89
2024/02/11 14:28:57;;;;;;;3.63;0.95;;;;;;;12.84;66.75;98072.81;10340458;28;20050;-90
2024/02/11 14:34:00;;;;;;;5.78;0.45;;;;;;;12.91;66.21;98078.03;10332197;28;20524;-89
2024/02/11 14:39:03;;;;;;;0.98;0.50;;;;;;;12.98;66.30;98094.84;10334759;28;20054;-90
2024/02/11 14:44:05;;;;;;;2.38;0.30;;;;;;;12.92;66.16;98095.03;10346832;23;20494;-68
2024/02/11 14:49:09;;;;;;;1.92;0.50;;;;;;;13.02;65.97;98093.28;10297703;28;20070;-66
2024/02/11 14:54:11;;;;;;;3.28;0.80;;;;;;;13.14;65.55;98097.78;10305271;28;20418;-69
2024/02/11 14:59:12;;;;;;;5.30;0.77;;;;;;;13.19;65.50;98100.53;10301592;28;20156;-68
2024/02/11 15:04:15;;;;;;;1.52;0.50;;;;;;;13.15;66.06;98108.31;10303633;28;20094;-66
2024/02/11 15:09:19;;;;;;;2.67;0.70;;;;;;;13.05;66.29;98114.38;10300225;28;20061;-69
2024/02/11 15:14:21;;;;;;;2.33;0.60;;;;;;;13.15;66.23;98115.59;10299360;28;20105;-69
2024/02/11 15:19:24;;;;;;;3.25;1.10;;;;;;;13.04;66.25;98117.31;10296061;28;20201;-69
2024/02/11 15:24:25;;;;;;;4.22;0.90;;;;;;;13.08;66.25;98121.97;10304976;28;20058;-69
2024/02/11 15:29:27;;;;;;;1.38;0.50;;;;;;;13.14;66.42;98132.84;10304566;28;20411;-69
2024/02/11 15:34:28;;;;;;;1.52;0.50;;;;;;;13.09;66.50;98133.56;10317677;28;20062;-68
2024/02/11 15:39:30;;;;;;;1.17;0.50;;;;;;;12.96;66.30;98144.72;10325647;28;20046;-71
2024/02/11 15:44:32;;;;;;;1.35;0.50;;;;;;;12.89;66.24;98145.72;10315851;28;20485;-67
2024/02/11 15:49:37;;;;;;;3.97;0.40;;;;;;;12.78;66.10;98152.00;10305747;28;20082;-68
2024/02/11 15:54:44;;;;;;;2.65;0.73;;;;;;;12.75;66.20;98154.34;10292629;28;20458;-67
2024/02/11 15:59:46;;;;;;;;;;;;;;;12.79;66.40;98155.50;10297237;28;20141;-68
2024/02/11 16:04:49;;;;;;;1.17;0.32;;;;;;;12.72;66.09;98165.59;10298157;28;20435;-68
2024/02/11 16:09:51;;;;;;;2.03;0.30;;;;;;;12.61;65.69;98167.31;10297555;28;20070;-66
2024/02/11 16:14:53;;;;;;;1.65;0.40;;;;;;;12.57;65.61;98180.47;10302795;28;20039;-68
2024/02/11 16:19:55;;;;;;;1.27;0.47;;;;;;;12.38;66.48;98197.88;10297449;28;20132;-69
2024/02/11 16:24:59;;;;;;;1.63;0.60;;;;;;;12.18;66.79;98201.00;10307340;28;20051;-67
2024/02/11 16:30:05;;;;;;;2.90;0.50;;;;;;;12.01;67.20;98200.97;10308580;28;20085;-65
2024/02/11 16:35:10;;;;;;;2.47;0.60;;;;;;;11.93;67.12;98207.53;10307572;28;20054;-66
2024/02/11 16:40:12;;;;;;;0.85;0.50;;;;;;;11.79;67.15;98222.25;10307014;28;20082;-65
2024/02/11 16:45:18;;;;;;;2.83;0.43;;;;;;;11.69;67.18;98234.47;10316200;28;20085;-65
2024/02/11 16:50:19;;;;;;;1.98;0.70;;;;;;;11.58;67.21;98237.97;10317717;28;20042;-63
2024/02/11 16:55:21;;;;;;;1.90;0.50;;;;;;;11.59;67.40;98241.47;10306808;28;20141;-61
2024/02/11 17:00:23;;;;;;;2.90;1.73;;;;;;;11.61;67.63;98248.28;10307748;28;20409;-62
2024/02/11 17:05:25;;;;;;;2.80;0.52;;;;;;;11.45;68.12;98257.03;10309539;28;20498;-61
2024/02/11 17:10:27;;;;;;;2.88;0.80;;;;;;;11.41;68.12;98270.13;10301625;28;20053;-62
2024/02/11 17:15:28;;;;;;;4.35;0.75;;;;;;;11.44;68.17;98261.59;10302969;28;20047;-61
2024/02/11 17:20:30;;;;;;;1.70;0.60;;;;;;;11.45;68.11;98275.88;10312678;28;20046;-61
2024/02/11 17:25:37;;;;;;;1.58;0.77;;;;;;;11.40;68.26;98279.25;10304594;28;20118;-61
2024/02/11 17:30:40;;;;;;;2.40;0.80;;;;;;;11.41;68.74;98285.47;10301784;28;20061;-63
2024/02/11 17:35:42;;;;;;;1.98;1.02;;;;;;;11.41;68.42;98285.47;10305724;28;20050;-61
2024/02/11 17:40:47;;;;;;;1.38;0.55;;;;;;;11.43;68.85;98294.13;10306538;28;20729;-63
2024/02/11 17:45:49;;;;;;;3.55;2.20;;;;;;;11.50;68.93;98292.13;10303268;28;20833;-61
2024/02/11 17:50:52;;;;;;;5.53;1.48;;;;;;;11.51;68.92;98302.69;10307805;28;20598;-61
2024/02/11 17:55:54;;;;;;;5.10;1.20;;;;;;;11.44;68.88;98301.16;10304982;28;20055;-60
2024/02/11 18:00:57;;;;;;;5.53;1.23;;;;;;;11.39;69.18;98304.50;10306020;28;20169;-60
2024/02/11 18:06:00;;;;;;;5.20;1.15;;;;;;;11.26;69.61;98315.50;10307433;28;20050;-61
2024/02/11 18:11:09;;;;;;;8.43;1.60;;;;;;;11.16;69.65;98324.13;10300318;28;20105;-61
2024/02/11 18:16:11;;;;;;;4.10;1.63;;;;;;;11.19;70.06;98328.22;10302908;28;20046;-61
2024/02/11 18:21:15;;;;;;;15.63;2.28;;;;;;;11.21;69.97;98318.88;10306276;28;20150;-62
2024/02/11 18:26:18;;;;;;;3.33;1.05;;;;;;;11.18;69.96;98331.97;10304485;28;20061;-60
2024/02/11 18:31:20;;;;;;;6.20;2.03;;;;;;;11.18;69.82;98323.91;10304284;28;20105;-60
2024/02/11 18:36:22;;;;;;;7.30;2.10;;;;;;;11.01;70.41;98329.91;10303812;28;20039;-60
2024/02/11 18:41:24;;;;;;;7.20;1.85;;;;;;;11.05;70.37;98341.84;10298119;28;20061;-59
2024/02/11 18:46:26;;;;;;;3.33;1.25;;;;;;;11.11;70.13;98345.50;10308625;28;20058;-63
2024/02/11 18:51:34;;;;;;;6.40;1.52;;;;;;;11.12;70.67;98349.84;10304014;28;20405;-61
2024/02/11 18:56:39;;;;;;;4.72;1.92;;;;;;;11.07;70.47;98361.25;10302941;28;20552;-61
2024/02/11 19:01:40;;;;;;;8.25;1.63;;;;;;;11.19;70.13;98358.63;10300714;28;20053;-61
2024/02/11 19:06:42;;;;;;;6.50;1.17;;;;;;;11.05;70.77;98365.25;10302736;28;20054;-63
2024/02/11 19:11:47;;;;;;;4.80;1.70;;;;;;;10.98;71.15;98364.50;10299282;28;20078;-61
2024/02/11 19:16:49;;;;;;;2.25;1.30;;;;;;;10.94;70.91;98374.91;10299992;28;20153;-63
2024/02/11 19:21:51;;;;;;;4.00;0.98;;;;;;;10.92;71.54;98379.69;10301552;28;20074;-63
2024/02/11 19:26:54;;;;;;;5.97;1.25;;;;;;;11.01;71.11;98380.19;10300961;28;20113;-62
2024/02/11 19:31:56;;;;;;;3.97;1.30;;;;;;;11.04;70.87;98385.13;10299865;28;20058;-61
2024/02/11 19:36:58;;;;;;;8.48;2.60;;;;;;;11.04;71.05;98380.56;10298924;28;20640;-63
2024/02/11 19:42:00;;;;;;;3.83;1.40;;;;;;;11.11;70.85;98393.91;10306490;28;20456;-64
2024/02/11 19:47:03;;;;;;;5.00;1.27;;;;;;;11.17;70.96;98394.88;10304191;28;20065;-63
2024/02/11 19:52:08;;;;;;;8.10;1.50;;;;;;;11.24;70.49;98390.22;10303006;28;20058;-64
2024/02/11 19:57:11;;;;;;;4.72;1.77;;;;;;;11.18;71.09;98389.25;10303247;28;20055;-63
2024/02/11 20:02:12;;;;;;;4.53;1.02;;;;;;;11.09;71.26;98398.69;10299845;28;20065;-62
2024/02/11 20:07:14;;;;;;;7.88;1.30;;;;;;;11.01;71.20;98401.69;10296581;28;20057;-61
2024/02/11 20:12:20;;;;;;;3.50;1.33;;;;;;;11.00;71.65;98406.25;10300106;28;20047;-60
2024/02/11 20:17:21;;;;;;;5.07;1.50;;;;;;;10.89;71.79;98413.22;10296442;28;20132;-61
2024/02/11 20:22:25;;;;;;;3.25;1.45;;;;;;;10.78;71.89;98411.31;10305334;28;20072;-61
2024/02/11 20:27:27;;;;;;;8.23;1.90;;;;;;;10.78;71.93;98413.13;10309245;28;20694;-62
2024/02/11 20:32:34;;;;;;;5.50;1.83;;;;;;;10.81;72.01;98418.91;10311749;28;20056;-60
2024/02/11 20:37:40;;;;;;;6.97;2.28;;;;;;;10.86;71.51;98421.75;10310395;28;20089;-61
2024/02/11 20:42:44;;;;;;;5.05;2.45;;;;;;;10.85;72.17;98428.16;10309756;28;20043;-62
2024/02/11 20:47:46;;;;;;;4.07;2.17;;;;;;;10.94;71.77;98433.22;10308262;28;20054;-61
2024/02/11 20:52:48;;;;;;;7.13;1.55;;;;;;;10.98;71.64;98432.56;10305957;28;20046;-61
2024/02/11 20:57:52;;;;;;;3.70;1.35;;;;;;;11.03;71.39;98437.25;10306949;28;20395;-61
2024/02/11 21:02:54;;;;;;;3.50;1.38;;;;;;;11.03;71.37;98434.56;10306967;28;20061;-59
2024/02/11 21:07:55;;;;;;;5.18;1.75;;;;;;;11.13;71.43;98452.84;10306586;28;20086;-62
2024/02/11 21:12:58;;;;;;;3.58;1.40;;;;;;;11.10;70.98;98448.75;10309583;28;20065;-64
2024/02/11 21:18:02;;;;;;;6.10;1.40;;;;;;;11.15;71.30;98448.88;10306029;28;20054;-64
2024/02/11 21:23:04;;;;;;;7.30;1.30;;;;;;;11.12;71.51;98452.03;10307209;28;20054;-63
2024/02/11 21:28:06;;;;;;;2.35;1.33;;;;;;;11.12;71.85;98457.41;10305226;28;20069;-65
2024/02/11 21:33:08;;;;;;;1.35;0.70;;;;;;;11.10;71.73;98456.81;10310458;28;20054;-64
2024/02/11 21:38:10;;;;;;;3.00;1.33;;;;;;;11.10;71.59;98460.31;10303790;28;20484;-62
2024/02/11 21:43:12;;;;;;;3.80;0.70;;;;;;;11.16;71.26;98466.66;10307651;28;20052;-63
2024/02/11 21:48:13;;;;;;;2.00;0.80;;;;;;;11.20;71.21;98461.66;10302292;28;20399;-62
2024/02/11 21:53:15;;;;;;;3.28;0.77;;;;;;;11.18;71.51;98461.88;10306755;28;20145;-65
2024/02/11 21:58:17;;;;;;;1.73;0.70;;;;;;;11.14;71.37;98467.91;10305201;28;20060;-64
2024/02/11 22:03:19;;;;;;;3.33;1.30;;;;;;;11.07;71.40;98463.44;10310670;28;20058;-65
2024/02/11 22:08:21;;;;;;;3.05;0.60;;;;;;;11.09;71.64;98472.09;10309724;28;20054;-64
2024/02/11 22:13:23;;;;;;;2.08;0.63;;;;;;;11.12;71.40;98470.84;10302943;28;20430;-64
2024/02/11 22:18:25;;;;;;;2.92;0.52;;;;;;;11.16;71.32;98472.03;10304807;28;20034;-61
2024/02/11 22:23:27;;;;;;;4.07;0.43;;;;;;;11.18;71.45;98467.25;10304939;28;20521;-61
2024/02/11 22:28:29;;;;;;;1.98;0.55;;;;;;;11.17;71.14;98470.97;10303770;28;20068;-61
2024/02/11 22:33:30;;;;;;;2.67;0.60;;;;;;;11.20;71.32;98472.41;10303825;28;20034;-61
2024/02/11 22:38:34;;;;;;;3.22;0.50;;;;;;;11.23;70.92;98478.13;10302912;28;20132;-61
2024/02/11 22:43:36;;;;;;;1.60;0.50;;;;;;;11.23;70.75;98472.75;10304198;28;20532;-62
2024/02/11 22:48:37;;;;;;;2.28;0.73;;;;;;;11.22;71.28;98489.13;10298039;28;20054;-62
2024/02/11 22:53:40;;;;;;;0.73;0.35;;;;;;;11.23;70.87;98483.50;10309278;28;20043;-61
2024/02/11 22:58:42;;;;;;;0.95;0.47;;;;;;;11.20;71.07;98480.47;10302309;28;20051;-60
2024/02/11 23:03:44;;;;;;;3.92;0.30;;;;;;;11.16;71.11;98488.16;10303717;28;20462;-61
2024/02/11 23:08:46;;;;;;;4.20;0.85;;;;;;;11.13;71.08;98490.47;10298269;28;20054;-60
2024/02/11 23:13:52;;;;;;;3.13;0.52;;;;;;;11.10;71.01;98500.66;10299512;28;20081;-60
2024/02/11 23:18:53;;;;;;;0.70;0.40;;;;;;;11.06;70.56;98488.69;10301042;28;20061;-61
2024/02/11 23:23:56;;;;;;;0.73;0.60;;;;;;;11.02;70.96;98508.19;10300923;28;20117;-61
2024/02/11 23:28:58;;;;;;;1.50;0.40;;;;;;;10.98;70.37;98502.44;10303849;28;20058;-61